EJU62AB EGPF-EHAM
Flight info
| Callsign | EJU62AB |
|---|---|
| Flight time | 1h 12m |
| Altitude | 37000 |
| Route | NORBO Y96 HAVEN DCT ERKIT N110 DOLAS L603 LAMSO |
| Aircraft | A320/M-SDE2E3FGHIJ1RWXYZ/LB1 |
Departure
| Time | 2026-04-30 11:07 |
|---|---|
| Airport | Glasgow Airport (EGPF) |
Arrival
| Time | 2026-04-30 12:19 |
|---|---|
| Airport | Amsterdam Airport Schiphol (EHAM) |
| Time | Latitude | Longitude | Altitude | Speed | Heading |
|---|---|---|---|---|---|
| 2026-04-30 10:42 | 55.86543 | -4.43386 | 31 ft | 0 kts | 74° |
| 2026-04-30 10:57 | 55.86542 | -4.43389 | 31 ft | 2 kts | 74° |
| 2026-04-30 10:57 | 55.86534 | -4.43433 | 31 ft | 4 kts | 70° |
| 2026-04-30 10:58 | 55.86524 | -4.43477 | 30 ft | 4 kts | 56° |
| 2026-04-30 10:58 | 55.86508 | -4.43506 | 30 ft | 4 kts | 1° |
| 2026-04-30 10:58 | 55.86501 | -4.43506 | 30 ft | 0 kts | 343° |
| 2026-04-30 11:03 | 55.86503 | -4.43506 | 30 ft | 2 kts | 345° |
| 2026-04-30 11:03 | 55.86543 | -4.43524 | 30 ft | 10 kts | 345° |
| 2026-04-30 11:03 | 55.86631 | -4.43567 | 29 ft | 15 kts | 344° |
| 2026-04-30 11:04 | 55.86729 | -4.43746 | 28 ft | 11 kts | 246° |
| 2026-04-30 11:04 | 55.86664 | -4.43880 | 28 ft | 14 kts | 226° |
| 2026-04-30 11:04 | 55.86604 | -4.43992 | 29 ft | 12 kts | 227° |
| 2026-04-30 11:04 | 55.86553 | -4.44089 | 30 ft | 9 kts | 227° |
| 2026-04-30 11:05 | 55.86507 | -4.44174 | 33 ft | 15 kts | 226° |
| 2026-04-30 11:05 | 55.86422 | -4.44333 | 32 ft | 18 kts | 226° |
| 2026-04-30 11:05 | 55.86363 | -4.44497 | 31 ft | 15 kts | 283° |
| 2026-04-30 11:05 | 55.86442 | -4.44528 | 33 ft | 12 kts | 15° |
| 2026-04-30 11:06 | 55.86522 | -4.44486 | 35 ft | 12 kts | 17° |
| 2026-04-30 11:06 | 55.86612 | -4.44408 | 37 ft | 27 kts | 37° |
| 2026-04-30 11:06 | 55.86917 | -4.43843 | 31 ft | 96 kts | 46° |
| 2026-04-30 11:06 | 55.87508 | -4.42738 | 32 ft | 148 kts | 46° |
| 2026-04-30 11:07 | 55.88257 | -4.41299 | 409 ft | 163 kts | 50° |
| 2026-04-30 11:07 | 55.89028 | -4.39823 | 1157 ft | 162 kts | 49° |
| 2026-04-30 11:07 | 55.89831 | -4.38331 | 1648 ft | 176 kts | 49° |
| 2026-04-30 11:07 | 55.90732 | -4.36656 | 1963 ft | 197 kts | 50° |
| 2026-04-30 11:08 | 55.91745 | -4.34777 | 2309 ft | 223 kts | 50° |
| 2026-04-30 11:08 | 55.92917 | -4.32755 | 2797 ft | 248 kts | 40° |
| 2026-04-30 11:08 | 55.94576 | -4.31555 | 3447 ft | 272 kts | 10° |
| 2026-04-30 11:08 | 55.96495 | -4.31949 | 4113 ft | 287 kts | 336° |
| 2026-04-30 11:09 | 55.98090 | -4.34068 | 4929 ft | 288 kts | 303° |
| 2026-04-30 11:09 | 55.98893 | -4.37261 | 5666 ft | 283 kts | 274° |
| 2026-04-30 11:09 | 55.98748 | -4.40637 | 5921 ft | 267 kts | 243° |
| 2026-04-30 11:09 | 55.97902 | -4.43470 | 5991 ft | 261 kts | 233° |
| 2026-04-30 11:10 | 55.96766 | -4.45941 | 6103 ft | 259 kts | 213° |
| 2026-04-30 11:10 | 55.95191 | -4.47396 | 6991 ft | 254 kts | 192° |
| 2026-04-30 11:10 | 55.93454 | -4.47614 | 7847 ft | 253 kts | 170° |
| 2026-04-30 11:10 | 55.91820 | -4.46484 | 8710 ft | 256 kts | 147° |
| 2026-04-30 11:11 | 55.90589 | -4.44149 | 9565 ft | 265 kts | 124° |
| 2026-04-30 11:11 | 55.89711 | -4.41240 | 10414 ft | 268 kts | 122° |
| 2026-04-30 11:11 | 55.88828 | -4.38250 | 10903 ft | 283 kts | 122° |
| 2026-04-30 11:11 | 55.87870 | -4.35022 | 11191 ft | 304 kts | 122° |
| 2026-04-30 11:12 | 55.86865 | -4.31648 | 11787 ft | 311 kts | 122° |
| 2026-04-30 11:12 | 55.85841 | -4.28222 | 12516 ft | 315 kts | 122° |
| 2026-04-30 11:12 | 55.84804 | -4.24758 | 13264 ft | 318 kts | 121° |
| 2026-04-30 11:12 | 55.83755 | -4.21271 | 13983 ft | 321 kts | 121° |
| 2026-04-30 11:13 | 55.82693 | -4.17750 | 14626 ft | 325 kts | 122° |
| 2026-04-30 11:13 | 55.81615 | -4.14191 | 15212 ft | 329 kts | 122° |
| 2026-04-30 11:13 | 55.80519 | -4.10580 | 15797 ft | 334 kts | 122° |
| 2026-04-30 11:13 | 55.79409 | -4.06931 | 16362 ft | 338 kts | 122° |
| 2026-04-30 11:14 | 55.78286 | -4.03231 | 16928 ft | 343 kts | 122° |
| 2026-04-30 11:14 | 55.77144 | -3.99474 | 17491 ft | 347 kts | 123° |
| 2026-04-30 11:14 | 55.75990 | -3.95676 | 18054 ft | 352 kts | 123° |
| 2026-04-30 11:14 | 55.74817 | -3.91827 | 18603 ft | 356 kts | 123° |
| 2026-04-30 11:15 | 55.73650 | -3.88005 | 19133 ft | 358 kts | 123° |
| 2026-04-30 11:15 | 55.72458 | -3.84111 | 19676 ft | 361 kts | 123° |
| 2026-04-30 11:15 | 55.71256 | -3.80191 | 20214 ft | 362 kts | 122° |
| 2026-04-30 11:15 | 55.70047 | -3.76254 | 20742 ft | 365 kts | 122° |
| 2026-04-30 11:16 | 55.68829 | -3.72290 | 21263 ft | 367 kts | 122° |
| 2026-04-30 11:16 | 55.67603 | -3.68303 | 21763 ft | 370 kts | 122° |
| 2026-04-30 11:16 | 55.66364 | -3.64283 | 22236 ft | 373 kts | 122° |
| 2026-04-30 11:16 | 55.65115 | -3.60242 | 22718 ft | 376 kts | 122° |
| 2026-04-30 11:17 | 55.63850 | -3.56170 | 23201 ft | 378 kts | 122° |
| 2026-04-30 11:17 | 55.62579 | -3.52083 | 23656 ft | 381 kts | 122° |
| 2026-04-30 11:17 | 55.61294 | -3.47961 | 24073 ft | 384 kts | 122° |
| 2026-04-30 11:17 | 55.59998 | -3.43805 | 24461 ft | 386 kts | 122° |
| 2026-04-30 11:18 | 55.58698 | -3.39639 | 24857 ft | 389 kts | 122° |
| 2026-04-30 11:18 | 55.56074 | -3.31225 | 25583 ft | 393 kts | 122° |
| 2026-04-30 11:18 | 55.54748 | -3.26982 | 25940 ft | 395 kts | 122° |
| 2026-04-30 11:19 | 55.53414 | -3.22725 | 26291 ft | 398 kts | 122° |
| 2026-04-30 11:19 | 55.52066 | -3.18445 | 26667 ft | 400 kts | 122° |
| 2026-04-30 11:19 | 55.50710 | -3.14156 | 27040 ft | 402 kts | 123° |
| 2026-04-30 11:19 | 55.49344 | -3.09841 | 27400 ft | 404 kts | 123° |
| 2026-04-30 11:20 | 55.47975 | -3.05514 | 27749 ft | 405 kts | 122° |
| 2026-04-30 11:20 | 55.46535 | -3.01234 | 28101 ft | 405 kts | 128° |
| 2026-04-30 11:20 | 55.44732 | -2.97454 | 28439 ft | 403 kts | 138° |
| 2026-04-30 11:20 | 55.42657 | -2.94130 | 28786 ft | 404 kts | 141° |
| 2026-04-30 11:21 | 55.40558 | -2.90820 | 29128 ft | 406 kts | 141° |
| 2026-04-30 11:21 | 55.38449 | -2.87495 | 29460 ft | 408 kts | 141° |
| 2026-04-30 11:21 | 55.36331 | -2.84155 | 29788 ft | 410 kts | 141° |
| 2026-04-30 11:21 | 55.34200 | -2.80797 | 30102 ft | 412 kts | 141° |
| 2026-04-30 11:22 | 55.32096 | -2.77485 | 30401 ft | 413 kts | 141° |
| 2026-04-30 11:22 | 55.29953 | -2.74107 | 30676 ft | 414 kts | 140° |
| 2026-04-30 11:22 | 55.27806 | -2.70725 | 30974 ft | 415 kts | 140° |
| 2026-04-30 11:22 | 55.25654 | -2.67345 | 31243 ft | 416 kts | 140° |
| 2026-04-30 11:23 | 55.23500 | -2.63963 | 31549 ft | 416 kts | 140° |
| 2026-04-30 11:23 | 55.21351 | -2.60597 | 31960 ft | 413 kts | 140° |
| 2026-04-30 11:23 | 55.17080 | -2.53939 | 32735 ft | 410 kts | 140° |
| 2026-04-30 11:24 | 55.14951 | -2.50627 | 33088 ft | 408 kts | 140° |
| 2026-04-30 11:24 | 55.12829 | -2.47331 | 33436 ft | 407 kts | 141° |
| 2026-04-30 11:24 | 55.10715 | -2.44047 | 33784 ft | 407 kts | 141° |
| 2026-04-30 11:25 | 55.06493 | -2.37503 | 34451 ft | 405 kts | 141° |
| 2026-04-30 11:25 | 55.04389 | -2.34250 | 34718 ft | 405 kts | 141° |
| 2026-04-30 11:25 | 55.00169 | -2.27738 | 35183 ft | 406 kts | 141° |
| 2026-04-30 11:26 | 54.95935 | -2.21245 | 35658 ft | 406 kts | 141° |
| 2026-04-30 11:26 | 54.93815 | -2.17998 | 35874 ft | 406 kts | 141° |
| 2026-04-30 11:26 | 54.91694 | -2.14752 | 36068 ft | 407 kts | 141° |
| 2026-04-30 11:27 | 54.89572 | -2.11504 | 36248 ft | 407 kts | 141° |
| 2026-04-30 11:27 | 54.87442 | -2.08247 | 36449 ft | 408 kts | 141° |
| 2026-04-30 11:27 | 54.85312 | -2.04995 | 36649 ft | 408 kts | 141° |
| 2026-04-30 11:27 | 54.83176 | -2.01741 | 36839 ft | 408 kts | 141° |
| 2026-04-30 11:28 | 54.78906 | -1.95244 | 37225 ft | 409 kts | 141° |
| 2026-04-30 11:28 | 54.76794 | -1.92042 | 37332 ft | 409 kts | 141° |
| 2026-04-30 11:29 | 54.72514 | -1.85579 | 37345 ft | 407 kts | 141° |
| 2026-04-30 11:29 | 54.66131 | -1.75958 | 37345 ft | 405 kts | 141° |
| 2026-04-30 11:30 | 54.59746 | -1.66380 | 37353 ft | 405 kts | 141° |
| 2026-04-30 11:31 | 54.55495 | -1.60016 | 37332 ft | 405 kts | 141° |
| 2026-04-30 11:31 | 54.51226 | -1.53645 | 37332 ft | 406 kts | 141° |
| 2026-04-30 11:32 | 54.46952 | -1.47297 | 37343 ft | 407 kts | 141° |
| 2026-04-30 11:32 | 54.42669 | -1.40950 | 37347 ft | 406 kts | 141° |
| 2026-04-30 11:33 | 54.36242 | -1.31465 | 37325 ft | 406 kts | 141° |
| 2026-04-30 11:33 | 54.31955 | -1.25145 | 37328 ft | 407 kts | 141° |
| 2026-04-30 11:34 | 54.27661 | -1.18834 | 37329 ft | 406 kts | 141° |
| 2026-04-30 11:34 | 54.23391 | -1.12598 | 37335 ft | 406 kts | 141° |
| 2026-04-30 11:35 | 54.19100 | -1.06333 | 37343 ft | 406 kts | 141° |
| 2026-04-30 11:35 | 54.14806 | -1.00076 | 37329 ft | 406 kts | 141° |
| 2026-04-30 11:36 | 54.10501 | -0.93822 | 37334 ft | 407 kts | 141° |
| 2026-04-30 11:36 | 54.06185 | -0.87584 | 37334 ft | 407 kts | 141° |
| 2026-04-30 11:37 | 54.01771 | -0.81550 | 37349 ft | 406 kts | 146° |
| 2026-04-30 11:37 | 53.97117 | -0.76094 | 37350 ft | 406 kts | 146° |
| 2026-04-30 11:38 | 53.92462 | -0.70638 | 37349 ft | 407 kts | 146° |
| 2026-04-30 11:38 | 53.87810 | -0.65188 | 37352 ft | 407 kts | 146° |
| 2026-04-30 11:39 | 53.83151 | -0.59749 | 37349 ft | 407 kts | 146° |
| 2026-04-30 11:39 | 53.78511 | -0.54362 | 37344 ft | 407 kts | 146° |
| 2026-04-30 11:40 | 53.73843 | -0.48961 | 37345 ft | 407 kts | 146° |
| 2026-04-30 11:40 | 53.69140 | -0.43525 | 37335 ft | 407 kts | 146° |
| 2026-04-30 11:41 | 53.64498 | -0.38166 | 37341 ft | 407 kts | 146° |
| 2026-04-30 11:41 | 53.59809 | -0.32778 | 37340 ft | 408 kts | 145° |
| 2026-04-30 11:42 | 53.55778 | -0.26094 | 37340 ft | 410 kts | 128° |
| 2026-04-30 11:42 | 53.52353 | -0.18422 | 37341 ft | 410 kts | 129° |
| 2026-04-30 11:43 | 53.48916 | -0.10777 | 37336 ft | 410 kts | 129° |
| 2026-04-30 11:43 | 53.45468 | -0.03140 | 37345 ft | 411 kts | 129° |
| 2026-04-30 11:44 | 53.42009 | 0.04497 | 37340 ft | 411 kts | 129° |
| 2026-04-30 11:44 | 53.38557 | 0.12110 | 37348 ft | 411 kts | 129° |
| 2026-04-30 11:45 | 53.35097 | 0.19726 | 37342 ft | 411 kts | 129° |
| 2026-04-30 11:45 | 53.31653 | 0.27273 | 37341 ft | 411 kts | 129° |
| 2026-04-30 11:46 | 53.28181 | 0.34859 | 37347 ft | 411 kts | 129° |
| 2026-04-30 11:46 | 53.24699 | 0.42423 | 37351 ft | 410 kts | 129° |
| 2026-04-30 11:47 | 53.21215 | 0.49972 | 37358 ft | 411 kts | 129° |
| 2026-04-30 11:47 | 53.17726 | 0.57517 | 37353 ft | 411 kts | 129° |
| 2026-04-30 11:48 | 53.14236 | 0.65038 | 37350 ft | 410 kts | 129° |
| 2026-04-30 11:48 | 53.10743 | 0.72569 | 37357 ft | 410 kts | 129° |
| 2026-04-30 11:49 | 53.07255 | 0.80073 | 37354 ft | 410 kts | 129° |
| 2026-04-30 11:49 | 53.03751 | 0.87558 | 37356 ft | 410 kts | 129° |
| 2026-04-30 11:50 | 53.00237 | 0.95020 | 37362 ft | 410 kts | 128° |
| 2026-04-30 11:50 | 52.97610 | 1.03340 | 37351 ft | 413 kts | 109° |
| 2026-04-30 11:51 | 52.96421 | 1.12694 | 37354 ft | 415 kts | 103° |
| 2026-04-30 11:51 | 52.95344 | 1.22105 | 37360 ft | 415 kts | 103° |
| 2026-04-30 11:52 | 52.94236 | 1.31494 | 37366 ft | 415 kts | 103° |
| 2026-04-30 11:52 | 52.93125 | 1.40893 | 37357 ft | 415 kts | 103° |
| 2026-04-30 11:53 | 52.92018 | 1.50289 | 37372 ft | 415 kts | 103° |
| 2026-04-30 11:53 | 52.90901 | 1.59672 | 37368 ft | 415 kts | 103° |
| 2026-04-30 11:54 | 52.89769 | 1.69052 | 37365 ft | 415 kts | 103° |
| 2026-04-30 11:54 | 52.88826 | 1.76843 | 37374 ft | 416 kts | 103° |
| 2026-04-30 11:55 | 52.87689 | 1.86233 | 37377 ft | 416 kts | 103° |
| 2026-04-30 11:55 | 52.86536 | 1.95625 | 37385 ft | 416 kts | 103° |
| 2026-04-30 11:56 | 52.85959 | 2.00309 | 37166 ft | 417 kts | 103° |
| 2026-04-30 11:56 | 52.85175 | 2.06650 | 35749 ft | 430 kts | 103° |
| 2026-04-30 11:56 | 52.84577 | 2.11500 | 35036 ft | 430 kts | 103° |
| 2026-04-30 11:56 | 52.84175 | 2.14762 | 34636 ft | 429 kts | 103° |
| 2026-04-30 11:57 | 52.83582 | 2.19550 | 33750 ft | 421 kts | 103° |
| 2026-04-30 11:57 | 52.82992 | 2.24264 | 32759 ft | 416 kts | 103° |
| 2026-04-30 11:57 | 52.82404 | 2.28917 | 31806 ft | 411 kts | 103° |
| 2026-04-30 11:57 | 52.81830 | 2.33448 | 30913 ft | 405 kts | 103° |
| 2026-04-30 11:58 | 52.81255 | 2.37979 | 29968 ft | 400 kts | 103° |
| 2026-04-30 11:58 | 52.80687 | 2.42450 | 28993 ft | 395 kts | 103° |
| 2026-04-30 11:58 | 52.80125 | 2.46851 | 28072 ft | 389 kts | 103° |
| 2026-04-30 11:58 | 52.79572 | 2.51187 | 27355 ft | 384 kts | 103° |
| 2026-04-30 11:59 | 52.79024 | 2.55480 | 26906 ft | 379 kts | 103° |
| 2026-04-30 11:59 | 52.78483 | 2.59707 | 26458 ft | 374 kts | 103° |
| 2026-04-30 11:59 | 52.77945 | 2.63885 | 26002 ft | 370 kts | 103° |
| 2026-04-30 11:59 | 52.77411 | 2.68019 | 25542 ft | 366 kts | 103° |
| 2026-04-30 12:00 | 52.76875 | 2.72117 | 25080 ft | 363 kts | 103° |
| 2026-04-30 12:00 | 52.76342 | 2.76181 | 24609 ft | 360 kts | 103° |
| 2026-04-30 12:00 | 52.75817 | 2.80201 | 24142 ft | 358 kts | 103° |
| 2026-04-30 12:00 | 52.75294 | 2.84213 | 23621 ft | 356 kts | 103° |
| 2026-04-30 12:01 | 52.74773 | 2.88191 | 23152 ft | 353 kts | 103° |
| 2026-04-30 12:01 | 52.74256 | 2.92120 | 22697 ft | 349 kts | 103° |
| 2026-04-30 12:01 | 52.73744 | 2.96016 | 22228 ft | 346 kts | 103° |
| 2026-04-30 12:01 | 52.73071 | 2.99800 | 21807 ft | 342 kts | 113° |
| 2026-04-30 12:02 | 52.71964 | 3.03253 | 21387 ft | 339 kts | 120° |
| 2026-04-30 12:02 | 52.70782 | 3.06604 | 20951 ft | 337 kts | 120° |
| 2026-04-30 12:02 | 52.69612 | 3.09937 | 20525 ft | 335 kts | 119° |
| 2026-04-30 12:02 | 52.68465 | 3.13205 | 20107 ft | 333 kts | 120° |
| 2026-04-30 12:03 | 52.67310 | 3.16489 | 19689 ft | 330 kts | 120° |
| 2026-04-30 12:03 | 52.65016 | 3.23009 | 18870 ft | 327 kts | 120° |
| 2026-04-30 12:03 | 52.63884 | 3.26234 | 18430 ft | 325 kts | 120° |
| 2026-04-30 12:04 | 52.62754 | 3.29441 | 18018 ft | 322 kts | 120° |
| 2026-04-30 12:04 | 52.61634 | 3.32606 | 17614 ft | 318 kts | 120° |
| 2026-04-30 12:04 | 52.60524 | 3.35738 | 17224 ft | 316 kts | 120° |
| 2026-04-30 12:04 | 52.59425 | 3.38840 | 16843 ft | 313 kts | 120° |
| 2026-04-30 12:05 | 52.58524 | 3.42073 | 16461 ft | 310 kts | 108° |
| 2026-04-30 12:05 | 52.58073 | 3.45531 | 16088 ft | 309 kts | 101° |
| 2026-04-30 12:05 | 52.57712 | 3.49002 | 15718 ft | 307 kts | 101° |
| 2026-04-30 12:05 | 52.57347 | 3.52456 | 15345 ft | 305 kts | 100° |
| 2026-04-30 12:06 | 52.56980 | 3.55886 | 14976 ft | 304 kts | 100° |
| 2026-04-30 12:06 | 52.56614 | 3.59295 | 14611 ft | 303 kts | 100° |
| 2026-04-30 12:06 | 52.56250 | 3.62696 | 14238 ft | 302 kts | 100° |
| 2026-04-30 12:06 | 52.55888 | 3.66086 | 13843 ft | 300 kts | 100° |
| 2026-04-30 12:07 | 52.55527 | 3.69446 | 13475 ft | 298 kts | 101° |
| 2026-04-30 12:07 | 52.55166 | 3.72779 | 13098 ft | 295 kts | 101° |
| 2026-04-30 12:07 | 52.54808 | 3.76094 | 12737 ft | 293 kts | 101° |
| 2026-04-30 12:07 | 52.54453 | 3.79376 | 12366 ft | 291 kts | 101° |
| 2026-04-30 12:08 | 52.54100 | 3.82638 | 11994 ft | 289 kts | 101° |
| 2026-04-30 12:08 | 52.53748 | 3.85870 | 11628 ft | 287 kts | 101° |
| 2026-04-30 12:08 | 52.53395 | 3.89082 | 11265 ft | 285 kts | 101° |
| 2026-04-30 12:08 | 52.53044 | 3.92267 | 10888 ft | 283 kts | 101° |
| 2026-04-30 12:09 | 52.52620 | 3.95399 | 10670 ft | 275 kts | 109° |
| 2026-04-30 12:09 | 52.51806 | 3.98136 | 10445 ft | 269 kts | 123° |
| 2026-04-30 12:09 | 52.50623 | 4.00566 | 10066 ft | 268 kts | 128° |
| 2026-04-30 12:09 | 52.49444 | 4.02881 | 9654 ft | 266 kts | 128° |
| 2026-04-30 12:10 | 52.48268 | 4.05191 | 9090 ft | 261 kts | 128° |
| 2026-04-30 12:10 | 52.47111 | 4.07458 | 8704 ft | 258 kts | 129° |
| 2026-04-30 12:10 | 52.45956 | 4.09720 | 8362 ft | 259 kts | 129° |
| 2026-04-30 12:10 | 52.44810 | 4.11971 | 8021 ft | 256 kts | 129° |
| 2026-04-30 12:11 | 52.43674 | 4.14211 | 7667 ft | 255 kts | 129° |
| 2026-04-30 12:11 | 52.42543 | 4.16438 | 7320 ft | 253 kts | 129° |
| 2026-04-30 12:11 | 52.41417 | 4.18648 | 6995 ft | 252 kts | 129° |
| 2026-04-30 12:11 | 52.40296 | 4.20839 | 6641 ft | 251 kts | 129° |
| 2026-04-30 12:12 | 52.39166 | 4.23048 | 6076 ft | 255 kts | 129° |
| 2026-04-30 12:12 | 52.38035 | 4.25255 | 5727 ft | 251 kts | 129° |
| 2026-04-30 12:12 | 52.36932 | 4.27408 | 5301 ft | 243 kts | 130° |
| 2026-04-30 12:12 | 52.35853 | 4.29515 | 4921 ft | 240 kts | 130° |
| 2026-04-30 12:13 | 52.34782 | 4.31603 | 4584 ft | 238 kts | 130° |
| 2026-04-30 12:13 | 52.33724 | 4.33661 | 4264 ft | 235 kts | 130° |
| 2026-04-30 12:13 | 52.32683 | 4.35688 | 3950 ft | 231 kts | 129° |
| 2026-04-30 12:13 | 52.31651 | 4.37693 | 3642 ft | 229 kts | 129° |
| 2026-04-30 12:14 | 52.30628 | 4.39679 | 3326 ft | 228 kts | 129° |
| 2026-04-30 12:14 | 52.29605 | 4.41666 | 3027 ft | 226 kts | 129° |
| 2026-04-30 12:14 | 52.28640 | 4.43538 | 2968 ft | 211 kts | 129° |
| 2026-04-30 12:14 | 52.27710 | 4.45331 | 2908 ft | 198 kts | 129° |
| 2026-04-30 12:15 | 52.26845 | 4.46999 | 2833 ft | 194 kts | 129° |
| 2026-04-30 12:15 | 52.25974 | 4.48684 | 2744 ft | 194 kts | 129° |
| 2026-04-30 12:15 | 52.25102 | 4.50371 | 2659 ft | 195 kts | 129° |
| 2026-04-30 12:15 | 52.24224 | 4.52067 | 2567 ft | 195 kts | 129° |
| 2026-04-30 12:16 | 52.23418 | 4.53837 | 2470 ft | 195 kts | 117° |
| 2026-04-30 12:16 | 52.23014 | 4.55939 | 2362 ft | 194 kts | 98° |
| 2026-04-30 12:16 | 52.23098 | 4.58138 | 2168 ft | 196 kts | 78° |
| 2026-04-30 12:16 | 52.23663 | 4.60123 | 1932 ft | 192 kts | 62° |
| 2026-04-30 12:17 | 52.25043 | 4.63684 | 1475 ft | 179 kts | 62° |
| 2026-04-30 12:17 | 52.25681 | 4.65335 | 1230 ft | 165 kts | 63° |
| 2026-04-30 12:17 | 52.26267 | 4.66851 | 1033 ft | 150 kts | 63° |
| 2026-04-30 12:18 | 52.26793 | 4.68216 | 813 ft | 137 kts | 64° |
| 2026-04-30 12:18 | 52.27293 | 4.69503 | 651 ft | 131 kts | 63° |
| 2026-04-30 12:18 | 52.27770 | 4.70734 | 433 ft | 129 kts | 62° |
| 2026-04-30 12:18 | 52.28243 | 4.71974 | 305 ft | 129 kts | 61° |
| 2026-04-30 12:19 | 52.28716 | 4.73219 | 117 ft | 129 kts | 62° |
| 2026-04-30 12:19 | 52.29193 | 4.74446 | 12 ft | 123 kts | 63° |
| 2026-04-30 12:19 | 52.29576 | 4.75459 | -4 ft | 82 kts | 58° |
| 2026-04-30 12:19 | 52.29797 | 4.76034 | -7 ft | 48 kts | 57° |
| 2026-04-30 12:20 | 52.29947 | 4.76413 | -6 ft | 30 kts | 51° |
| 2026-04-30 12:20 | 52.30056 | 4.76560 | -3 ft | 14 kts | 30° |
| 2026-04-30 12:20 | 52.30146 | 4.76640 | -2 ft | 15 kts | 28° |
| 2026-04-30 12:20 | 52.30247 | 4.76726 | -3 ft | 17 kts | 26° |
| 2026-04-30 12:21 | 52.30327 | 4.76725 | -3 ft | 9 kts | 329° |
| 2026-04-30 12:21 | 52.30349 | 4.76647 | -2 ft | 7 kts | 282° |
| 2026-04-30 12:21 | 52.30366 | 4.76584 | -2 ft | 5 kts | 312° |
| 2026-04-30 12:21 | 52.30394 | 4.76552 | -2 ft | 4 kts | 327° |
| 2026-04-30 12:22 | 52.30420 | 4.76525 | -2 ft | 7 kts | 327° |
| 2026-04-30 12:22 | 52.30474 | 4.76468 | -2 ft | 9 kts | 327° |
| 2026-04-30 12:22 | 52.30514 | 4.76456 | -2 ft | 5 kts | 34° |
| 2026-04-30 12:22 | 52.30532 | 4.76500 | -2 ft | 2 kts | 58° |
| 2026-04-30 12:23 | 52.30538 | 4.76516 | -2 ft | 0 kts | 58° |